Погода Наифаруна 2 недели

Дансай, Таиланд

02 - 15 марта
  • 02марта
    Сегодня
    +22°
    +34°
    Практически безоблачно
    ВремяПогодаТемператураВлажностьДавлениеВетер, м/сВероятность осадков
    01:00Ясно и безоблачно+26°C54 %747 мм4.4 м/с1 %
    04:00Облачно с прояснениями+24°C60 %746 мм4.8 м/с3 %
    07:00Облачно с прояснениями+22°C65 %748 мм3.9 м/с2 %
    10:00Ясно и безоблачно+27°C52 %749 мм3.9 м/с2 %
    13:00Практически безоблачно+32°C43 %747 мм3.1 м/с1 %
    16:00Небольшая облачность+33°C40 %745 мм2.6 м/с5 %
    19:00Ясно и безоблачно+29°C49 %745 мм1.8 м/с4 %
    22:00Ясно и безоблачно+28°C54 %747 мм2.5 м/с2 %
  • 03марта
    Воскресенье
    +24°
    +35°
    Ясно и безоблачно
    ВремяПогодаТемператураВлажностьДавлениеВетер, м/сВероятность осадков
    01:00Ясно и безоблачно+26°C54 %747 мм3.4 м/с1 %
    04:00Ясно и безоблачно+23°C60 %746 мм2.2 м/с2 %
    07:00Ясно и безоблачно+22°C63 %748 мм2.5 м/с2 %
    10:00Ясно и безоблачно+28°C50 %749 мм1.9 м/с2 %
    13:00Ясно и безоблачно+33°C41 %746 мм1.1 м/с1 %
    16:00Ясно и безоблачно+35°C39 %744 мм0.6 м/с2 %
    19:00Практически безоблачно+30°C48 %744 мм1.9 м/с2 %
    22:00Ясно и безоблачно+29°C58 %745 мм1.6 м/с2 %
  • 04марта
    Понедельник
    +25°
    +37°
    Практически безоблачно
    ВремяПогодаТемператураВлажностьДавлениеВетер, м/сВероятность осадков
    01:00Ясно и безоблачно+27°C67 %745 мм1.8 м/с2 %
    04:00Ясно и безоблачно+26°C65 %744 мм2.1 м/с2 %
    07:00Ясно и безоблачно+25°C72 %746 мм1.9 м/с2 %
    10:00Ясно и безоблачно+32°C54 %747 мм2.7 м/с2 %
    13:00Практически безоблачно+36°C40 %745 мм3.1 м/с7 %
    16:00Ясно и безоблачно+36°C39 %742 мм2.9 м/с12 %
    19:00Ясно и безоблачно+32°C49 %742 мм2.0 м/с6 %
    22:00Ясно и безоблачно+31°C56 %744 мм2.1 м/с2 %
  • 05марта
    Вторник
    +24°
    +38°
    Ясно и безоблачно
    ВремяПогодаТемператураВлажностьДавлениеВетер, м/сВероятность осадков
    01:00Ясно и безоблачно+28°C69 %744 мм3.5 м/с2 %
    04:00Небольшая облачность+27°C79 %744 мм3.7 м/с2 %
    07:00Ясно и безоблачно+26°C81 %745 мм2.9 м/с2 %
    10:00Ясно и безоблачно+32°C55 %746 мм3.3 м/с2 %
    13:00Ясно и безоблачно+37°C34 %744 мм3.7 м/с2 %
    16:00Ясно и безоблачно+38°C22 %742 мм4.4 м/с3 %
    19:00Ясно и безоблачно+33°C30 %742 мм3.3 м/с2 %
    22:00Ясно и безоблачно+30°C43 %744 мм2.5 м/с2 %
  • 06марта
    Среда
    +25°
    +38°
    Ясно и безоблачно
    ВремяПогодаТемператураВлажностьДавлениеВетер, м/сВероятность осадков
    01:00Ясно и безоблачно+27°C63 %743 мм2.8 м/с2 %
    04:00Ясно и безоблачно+25°C92 %743 мм3.3 м/с2 %
    07:00Ясно и безоблачно+25°C95 %744 мм2.2 м/с2 %
    10:00Ясно и безоблачно+31°C60 %746 мм2.3 м/с2 %
    13:00Ясно и безоблачно+37°C28 %743 мм2.9 м/с2 %
    16:00Ясно и безоблачно+37°C21 %741 мм2.3 м/с2 %
    19:00Ясно и безоблачно+34°C26 %741 мм1.6 м/с2 %
    22:00Ясно и безоблачно+30°C47 %743 мм1.9 м/с2 %
Мы используем cookies
Соглашаюсь